sensor_id;sensor_type;location;lat;lon;timestamp;P1;durP1;ratioP1;P2;durP2;ratioP2
11131;SDS011;5620;53.570;9.718;2024-02-21T00:00:27;13.95;;;5.43;;
11131;SDS011;5620;53.570;9.718;2024-02-21T00:02:53;18.00;;;8.17;;
11131;SDS011;5620;53.570;9.718;2024-02-21T00:05:18;18.13;;;7.97;;
11131;SDS011;5620;53.570;9.718;2024-02-21T00:07:44;14.30;;;6.78;;
11131;SDS011;5620;53.570;9.718;2024-02-21T00:10:09;24.38;;;9.02;;
11131;SDS011;5620;53.570;9.718;2024-02-21T00:12:35;14.67;;;6.83;;
11131;SDS011;5620;53.570;9.718;2024-02-21T00:15:00;15.23;;;6.70;;
11131;SDS011;5620;53.570;9.718;2024-02-21T00:17:26;13.15;;;8.45;;
11131;SDS011;5620;53.570;9.718;2024-02-21T00:19:51;9.43;;;6.07;;
11131;SDS011;5620;53.570;9.718;2024-02-21T00:22:17;8.87;;;6.77;;
11131;SDS011;5620;53.570;9.718;2024-02-21T00:24:42;17.55;;;9.70;;
11131;SDS011;5620;53.570;9.718;2024-02-21T00:27:08;18.70;;;6.60;;
11131;SDS011;5620;53.570;9.718;2024-02-21T00:29:33;18.73;;;8.83;;
11131;SDS011;5620;53.570;9.718;2024-02-21T00:31:59;20.97;;;9.13;;
11131;SDS011;5620;53.570;9.718;2024-02-21T00:34:24;14.00;;;7.68;;
11131;SDS011;5620;53.570;9.718;2024-02-21T00:36:50;13.17;;;8.67;;
11131;SDS011;5620;53.570;9.718;2024-02-21T00:39:15;15.80;;;9.23;;
11131;SDS011;5620;53.570;9.718;2024-02-21T00:41:41;29.23;;;10.18;;
11131;SDS011;5620;53.570;9.718;2024-02-21T00:44:06;17.03;;;8.27;;
11131;SDS011;5620;53.570;9.718;2024-02-21T00:46:32;14.17;;;7.30;;
11131;SDS011;5620;53.570;9.718;2024-02-21T00:48:57;13.82;;;8.32;;
11131;SDS011;5620;53.570;9.718;2024-02-21T00:51:23;21.63;;;8.80;;
11131;SDS011;5620;53.570;9.718;2024-02-21T00:53:48;16.03;;;8.63;;
11131;SDS011;5620;53.570;9.718;2024-02-21T00:56:14;19.20;;;7.53;;
11131;SDS011;5620;53.570;9.718;2024-02-21T00:58:39;20.10;;;8.93;;
11131;SDS011;5620;53.570;9.718;2024-02-21T01:01:05;12.67;;;7.97;;
11131;SDS011;5620;53.570;9.718;2024-02-21T01:03:30;19.17;;;7.87;;
11131;SDS011;5620;53.570;9.718;2024-02-21T01:05:56;14.30;;;6.85;;
11131;SDS011;5620;53.570;9.718;2024-02-21T01:08:21;12.33;;;5.93;;
11131;SDS011;5620;53.570;9.718;2024-02-21T01:10:47;17.07;;;7.30;;
11131;SDS011;5620;53.570;9.718;2024-02-21T01:13:12;13.00;;;7.57;;
11131;SDS011;5620;53.570;9.718;2024-02-21T01:15:38;13.27;;;8.50;;
11131;SDS011;5620;53.570;9.718;2024-02-21T01:18:04;16.07;;;6.67;;
11131;SDS011;5620;53.570;9.718;2024-02-21T01:20:29;16.85;;;7.40;;
11131;SDS011;5620;53.570;9.718;2024-02-21T01:22:55;19.47;;;9.47;;
11131;SDS011;5620;53.570;9.718;2024-02-21T01:25:20;14.10;;;7.00;;
11131;SDS011;5620;53.570;9.718;2024-02-21T01:27:46;15.77;;;7.55;;
11131;SDS011;5620;53.570;9.718;2024-02-21T01:30:11;9.43;;;5.53;;
11131;SDS011;5620;53.570;9.718;2024-02-21T01:32:37;19.07;;;8.37;;
11131;SDS011;5620;53.570;9.718;2024-02-21T01:35:02;15.68;;;7.18;;
11131;SDS011;5620;53.570;9.718;2024-02-21T01:37:28;6.50;;;5.10;;
11131;SDS011;5620;53.570;9.718;2024-02-21T01:39:54;14.38;;;7.22;;
11131;SDS011;5620;53.570;9.718;2024-02-21T01:42:19;13.10;;;7.23;;
11131;SDS011;5620;53.570;9.718;2024-02-21T01:44:45;7.10;;;5.63;;
11131;SDS011;5620;53.570;9.718;2024-02-21T01:47:10;7.45;;;6.00;;
11131;SDS011;5620;53.570;9.718;2024-02-21T01:49:36;11.67;;;6.53;;
11131;SDS011;5620;53.570;9.718;2024-02-21T01:52:02;11.93;;;7.05;;
11131;SDS011;5620;53.570;9.718;2024-02-21T01:54:28;13.07;;;7.83;;
11131;SDS011;5620;53.570;9.718;2024-02-21T01:56:54;17.60;;;6.95;;
11131;SDS011;5620;53.570;9.718;2024-02-21T01:59:19;5.32;;;4.90;;
11131;SDS011;5620;53.570;9.718;2024-02-21T02:01:46;15.47;;;7.43;;
11131;SDS011;5620;53.570;9.718;2024-02-21T02:04:12;14.48;;;7.60;;
11131;SDS011;5620;53.570;9.718;2024-02-21T02:06:37;13.67;;;7.50;;
11131;SDS011;5620;53.570;9.718;2024-02-21T02:09:03;9.98;;;4.47;;
11131;SDS011;5620;53.570;9.718;2024-02-21T02:11:31;20.07;;;8.60;;
11131;SDS011;5620;53.570;9.718;2024-02-21T02:13:57;17.38;;;8.52;;
11131;SDS011;5620;53.570;9.718;2024-02-21T02:16:22;11.67;;;7.63;;
11131;SDS011;5620;53.570;9.718;2024-02-21T02:18:48;13.03;;;8.03;;
11131;SDS011;5620;53.570;9.718;2024-02-21T02:21:16;18.00;;;9.07;;
11131;SDS011;5620;53.570;9.718;2024-02-21T02:24:07;13.60;;;9.60;;
11131;SDS011;5620;53.570;9.718;2024-02-21T02:26:33;19.73;;;8.73;;
11131;SDS011;5620;53.570;9.718;2024-02-21T02:29:01;19.17;;;9.93;;
11131;SDS011;5620;53.570;9.718;2024-02-21T02:31:27;13.23;;;8.98;;
11131;SDS011;5620;53.570;9.718;2024-02-21T02:33:52;18.33;;;10.63;;
11131;SDS011;5620;53.570;9.718;2024-02-21T02:36:18;17.27;;;8.98;;
11131;SDS011;5620;53.570;9.718;2024-02-21T02:38:43;17.53;;;10.63;;
11131;SDS011;5620;53.570;9.718;2024-02-21T02:41:09;13.13;;;8.93;;
11131;SDS011;5620;53.570;9.718;2024-02-21T02:43:34;17.50;;;7.82;;
11131;SDS011;5620;53.570;9.718;2024-02-21T02:46:00;21.67;;;11.07;;
11131;SDS011;5620;53.570;9.718;2024-02-21T02:48:25;16.20;;;10.37;;
11131;SDS011;5620;53.570;9.718;2024-02-21T02:50:51;20.95;;;11.70;;
11131;SDS011;5620;53.570;9.718;2024-02-21T02:53:16;17.50;;;9.40;;
11131;SDS011;5620;53.570;9.718;2024-02-21T02:55:42;18.37;;;8.83;;
11131;SDS011;5620;53.570;9.718;2024-02-21T02:58:07;17.27;;;8.10;;
11131;SDS011;5620;53.570;9.718;2024-02-21T03:00:33;19.85;;;11.95;;
11131;SDS011;5620;53.570;9.718;2024-02-21T03:02:58;14.37;;;10.23;;
11131;SDS011;5620;53.570;9.718;2024-02-21T03:05:24;23.33;;;10.87;;
11131;SDS011;5620;53.570;9.718;2024-02-21T03:07:49;14.95;;;8.02;;
11131;SDS011;5620;53.570;9.718;2024-02-21T03:10:15;19.40;;;9.63;;
11131;SDS011;5620;53.570;9.718;2024-02-21T03:12:41;13.20;;;8.23;;
11131;SDS011;5620;53.570;9.718;2024-02-21T03:15:06;11.48;;;8.18;;
11131;SDS011;5620;53.570;9.718;2024-02-21T03:17:32;17.33;;;8.87;;
11131;SDS011;5620;53.570;9.718;2024-02-21T03:19:58;23.23;;;10.90;;
11131;SDS011;5620;53.570;9.718;2024-02-21T03:22:23;10.77;;;6.70;;
11131;SDS011;5620;53.570;9.718;2024-02-21T03:24:49;17.90;;;9.10;;
11131;SDS011;5620;53.570;9.718;2024-02-21T03:27:14;17.85;;;7.80;;
11131;SDS011;5620;53.570;9.718;2024-02-21T03:29:40;16.23;;;8.27;;
11131;SDS011;5620;53.570;9.718;2024-02-21T03:32:05;21.30;;;8.13;;
11131;SDS011;5620;53.570;9.718;2024-02-21T03:34:31;14.35;;;8.55;;
11131;SDS011;5620;53.570;9.718;2024-02-21T03:36:56;15.37;;;8.07;;
11131;SDS011;5620;53.570;9.718;2024-02-21T03:39:22;17.80;;;7.20;;
11131;SDS011;5620;53.570;9.718;2024-02-21T03:41:47;20.08;;;8.40;;
11131;SDS011;5620;53.570;9.718;2024-02-21T03:44:13;12.60;;;8.00;;
11131;SDS011;5620;53.570;9.718;2024-02-21T03:46:39;12.83;;;6.67;;
11131;SDS011;5620;53.570;9.718;2024-02-21T03:49:04;13.45;;;6.68;;
11131;SDS011;5620;53.570;9.718;2024-02-21T03:51:30;22.43;;;9.00;;
11131;SDS011;5620;53.570;9.718;2024-02-21T03:53:55;9.67;;;5.90;;
11131;SDS011;5620;53.570;9.718;2024-02-21T03:56:21;17.60;;;8.45;;
11131;SDS011;5620;53.570;9.718;2024-02-21T03:58:46;21.13;;;8.00;;
11131;SDS011;5620;53.570;9.718;2024-02-21T04:01:14;12.97;;;8.47;;
11131;SDS011;5620;53.570;9.718;2024-02-21T04:03:40;18.50;;;8.07;;
11131;SDS011;5620;53.570;9.718;2024-02-21T04:06:07;12.45;;;7.15;;
11131;SDS011;5620;53.570;9.718;2024-02-21T04:08:32;13.03;;;6.87;;
11131;SDS011;5620;53.570;9.718;2024-02-21T04:10:58;15.27;;;6.95;;
11131;SDS011;5620;53.570;9.718;2024-02-21T04:13:23;10.73;;;5.72;;
11131;SDS011;5620;53.570;9.718;2024-02-21T04:15:49;9.77;;;7.53;;
11131;SDS011;5620;53.570;9.718;2024-02-21T04:18:14;14.27;;;7.57;;
11131;SDS011;5620;53.570;9.718;2024-02-21T04:20:40;13.73;;;6.95;;
11131;SDS011;5620;53.570;9.718;2024-02-21T04:23:05;45.57;;;22.80;;
11131;SDS011;5620;53.570;9.718;2024-02-21T04:25:31;7.63;;;5.50;;
11131;SDS011;5620;53.570;9.718;2024-02-21T04:27:56;10.95;;;6.63;;
11131;SDS011;5620;53.570;9.718;2024-02-21T04:30:22;12.57;;;6.80;;
11131;SDS011;5620;53.570;9.718;2024-02-21T04:32:47;15.50;;;6.40;;
11131;SDS011;5620;53.570;9.718;2024-02-21T04:35:13;11.30;;;8.57;;
11131;SDS011;5620;53.570;9.718;2024-02-21T04:37:38;7.67;;;5.10;;
11131;SDS011;5620;53.570;9.718;2024-02-21T04:40:04;11.53;;;6.00;;
11131;SDS011;5620;53.570;9.718;2024-02-21T04:42:30;8.55;;;5.80;;
11131;SDS011;5620;53.570;9.718;2024-02-21T04:44:56;5.50;;;4.90;;
11131;SDS011;5620;53.570;9.718;2024-02-21T04:47:21;9.48;;;5.13;;
11131;SDS011;5620;53.570;9.718;2024-02-21T04:49:47;13.73;;;6.33;;
11131;SDS011;5620;53.570;9.718;2024-02-21T04:52:12;11.97;;;5.93;;
11131;SDS011;5620;53.570;9.718;2024-02-21T04:54:38;8.38;;;6.03;;
11131;SDS011;5620;53.570;9.718;2024-02-21T04:57:04;10.17;;;5.27;;
11131;SDS011;5620;53.570;9.718;2024-02-21T04:59:29;5.38;;;4.88;;
11131;SDS011;5620;53.570;9.718;2024-02-21T05:01:55;5.07;;;4.50;;
11131;SDS011;5620;53.570;9.718;2024-02-21T05:04:21;6.97;;;5.30;;
11131;SDS011;5620;53.570;9.718;2024-02-21T05:06:46;4.50;;;4.10;;
11131;SDS011;5620;53.570;9.718;2024-02-21T05:09:12;4.20;;;3.73;;
11131;SDS011;5620;53.570;9.718;2024-02-21T05:11:37;8.05;;;4.63;;
11131;SDS011;5620;53.570;9.718;2024-02-21T05:14:03;5.63;;;4.55;;
11131;SDS011;5620;53.570;9.718;2024-02-21T05:16:29;4.80;;;4.32;;
11131;SDS011;5620;53.570;9.718;2024-02-21T05:18:56;3.55;;;3.25;;
11131;SDS011;5620;53.570;9.718;2024-02-21T05:21:22;6.87;;;4.97;;
11131;SDS011;5620;53.570;9.718;2024-02-21T05:23:48;4.18;;;3.78;;
11131;SDS011;5620;53.570;9.718;2024-02-21T05:26:19;6.73;;;4.70;;
11131;SDS011;5620;53.570;9.718;2024-02-21T05:28:49;5.00;;;4.47;;
11131;SDS011;5620;53.570;9.718;2024-02-21T05:31:14;4.87;;;3.83;;
11131;SDS011;5620;53.570;9.718;2024-02-21T05:33:40;5.43;;;4.82;;
11131;SDS011;5620;53.570;9.718;2024-02-21T05:36:06;4.37;;;3.23;;
11131;SDS011;5620;53.570;9.718;2024-02-21T05:38:31;9.30;;;7.15;;
11131;SDS011;5620;53.570;9.718;2024-02-21T05:40:57;3.35;;;3.03;;
11131;SDS011;5620;53.570;9.718;2024-02-21T05:43:22;5.73;;;3.90;;
11131;SDS011;5620;53.570;9.718;2024-02-21T05:45:48;3.87;;;3.37;;
11131;SDS011;5620;53.570;9.718;2024-02-21T05:48:13;3.80;;;3.50;;
11131;SDS011;5620;53.570;9.718;2024-02-21T05:50:39;4.53;;;3.83;;
11131;SDS011;5620;53.570;9.718;2024-02-21T05:53:04;4.43;;;3.80;;
11131;SDS011;5620;53.570;9.718;2024-02-21T05:55:30;3.25;;;2.83;;
11131;SDS011;5620;53.570;9.718;2024-02-21T05:57:55;3.43;;;3.10;;
11131;SDS011;5620;53.570;9.718;2024-02-21T06:00:21;15.10;;;8.67;;
11131;SDS011;5620;53.570;9.718;2024-02-21T06:02:46;4.93;;;3.88;;
11131;SDS011;5620;53.570;9.718;2024-02-21T06:05:12;4.10;;;3.50;;
11131;SDS011;5620;53.570;9.718;2024-02-21T06:07:38;3.13;;;2.83;;
11131;SDS011;5620;53.570;9.718;2024-02-21T06:10:03;3.95;;;3.65;;
11131;SDS011;5620;53.570;9.718;2024-02-21T06:12:29;3.15;;;2.92;;
11131;SDS011;5620;53.570;9.718;2024-02-21T06:14:55;3.80;;;3.50;;
11131;SDS011;5620;53.570;9.718;2024-02-21T06:17:20;2.67;;;2.47;;
11131;SDS011;5620;53.570;9.718;2024-02-21T06:19:46;2.75;;;2.55;;
11131;SDS011;5620;53.570;9.718;2024-02-21T06:22:11;3.60;;;2.17;;
11131;SDS011;5620;53.570;9.718;2024-02-21T06:24:37;3.20;;;2.53;;
11131;SDS011;5620;53.570;9.718;2024-02-21T06:27:03;2.80;;;2.35;;
11131;SDS011;5620;53.570;9.718;2024-02-21T06:29:29;2.42;;;2.22;;
11131;SDS011;5620;53.570;9.718;2024-02-21T06:31:55;10.60;;;6.67;;
11131;SDS011;5620;53.570;9.718;2024-02-21T06:34:20;2.20;;;2.10;;
11131;SDS011;5620;53.570;9.718;2024-02-21T06:36:46;2.22;;;2.03;;
11131;SDS011;5620;53.570;9.718;2024-02-21T06:39:11;1.93;;;1.83;;
11131;SDS011;5620;53.570;9.718;2024-02-21T06:41:37;1.50;;;1.40;;
11131;SDS011;5620;53.570;9.718;2024-02-21T06:44:03;2.53;;;2.28;;
11131;SDS011;5620;53.570;9.718;2024-02-21T06:46:29;3.28;;;2.00;;
11131;SDS011;5620;53.570;9.718;2024-02-21T06:48:55;2.17;;;1.97;;
11131;SDS011;5620;53.570;9.718;2024-02-21T06:51:20;1.73;;;1.63;;
11131;SDS011;5620;53.570;9.718;2024-02-21T06:53:46;2.50;;;2.30;;
11131;SDS011;5620;53.570;9.718;2024-02-21T06:56:11;1.52;;;1.42;;
11131;SDS011;5620;53.570;9.718;2024-02-21T06:58:37;1.90;;;1.80;;
11131;SDS011;5620;53.570;9.718;2024-02-21T07:01:03;2.83;;;2.20;;
11131;SDS011;5620;53.570;9.718;2024-02-21T07:03:28;2.55;;;2.35;;
11131;SDS011;5620;53.570;9.718;2024-02-21T07:05:54;3.00;;;1.93;;
11131;SDS011;5620;53.570;9.718;2024-02-21T07:08:19;2.35;;;2.15;;
11131;SDS011;5620;53.570;9.718;2024-02-21T07:10:45;2.23;;;1.93;;
11131;SDS011;5620;53.570;9.718;2024-02-21T07:13:10;2.50;;;2.33;;
11131;SDS011;5620;53.570;9.718;2024-02-21T07:15:36;2.05;;;1.85;;
11131;SDS011;5620;53.570;9.718;2024-02-21T07:18:01;3.13;;;2.93;;
11131;SDS011;5620;53.570;9.718;2024-02-21T07:20:27;2.40;;;2.20;;
11131;SDS011;5620;53.570;9.718;2024-02-21T07:22:53;4.35;;;2.38;;
11131;SDS011;5620;53.570;9.718;2024-02-21T07:25:18;2.80;;;2.60;;
11131;SDS011;5620;53.570;9.718;2024-02-21T07:27:44;1.53;;;1.43;;
11131;SDS011;5620;53.570;9.718;2024-02-21T07:30:10;2.55;;;2.45;;
11131;SDS011;5620;53.570;9.718;2024-02-21T07:32:36;2.05;;;1.95;;
11131;SDS011;5620;53.570;9.718;2024-02-21T07:35:01;1.90;;;1.70;;
11131;SDS011;5620;53.570;9.718;2024-02-21T07:37:27;6.43;;;2.13;;
11131;SDS011;5620;53.570;9.718;2024-02-21T07:39:52;4.60;;;1.63;;
11131;SDS011;5620;53.570;9.718;2024-02-21T07:42:18;2.10;;;1.90;;
11131;SDS011;5620;53.570;9.718;2024-02-21T07:44:43;2.23;;;1.80;;
11131;SDS011;5620;53.570;9.718;2024-02-21T07:47:10;1.45;;;1.27;;
11131;SDS011;5620;53.570;9.718;2024-02-21T07:49:43;2.60;;;1.73;;
11131;SDS011;5620;53.570;9.718;2024-02-21T07:52:09;4.20;;;2.37;;
11131;SDS011;5620;53.570;9.718;2024-02-21T07:54:35;1.33;;;1.13;;
11131;SDS011;5620;53.570;9.718;2024-02-21T07:57:00;2.17;;;1.30;;
11131;SDS011;5620;53.570;9.718;2024-02-21T07:59:26;2.23;;;1.20;;
11131;SDS011;5620;53.570;9.718;2024-02-21T08:01:51;8.18;;;2.10;;
11131;SDS011;5620;53.570;9.718;2024-02-21T08:04:20;5.17;;;1.40;;
11131;SDS011;5620;53.570;9.718;2024-02-21T08:06:46;13.43;;;2.13;;
11131;SDS011;5620;53.570;9.718;2024-02-21T08:09:19;7.50;;;1.30;;
11131;SDS011;5620;53.570;9.718;2024-02-21T08:11:44;4.75;;;1.88;;
11131;SDS011;5620;53.570;9.718;2024-02-21T08:14:10;5.47;;;1.67;;
11131;SDS011;5620;53.570;9.718;2024-02-21T08:16:35;6.47;;;1.60;;
11131;SDS011;5620;53.570;9.718;2024-02-21T08:19:01;2.83;;;1.73;;
11131;SDS011;5620;53.570;9.718;2024-02-21T08:21:26;4.43;;;2.20;;
11131;SDS011;5620;53.570;9.718;2024-02-21T08:23:52;6.13;;;2.63;;
11131;SDS011;5620;53.570;9.718;2024-02-21T08:26:17;4.75;;;1.88;;
11131;SDS011;5620;53.570;9.718;2024-02-21T08:28:43;7.67;;;2.70;;
11131;SDS011;5620;53.570;9.718;2024-02-21T08:31:08;6.00;;;2.03;;
11131;SDS011;5620;53.570;9.718;2024-02-21T08:33:34;7.97;;;2.42;;
11131;SDS011;5620;53.570;9.718;2024-02-21T08:35:59;6.73;;;2.53;;
11131;SDS011;5620;53.570;9.718;2024-02-21T08:38:25;6.77;;;2.00;;
11131;SDS011;5620;53.570;9.718;2024-02-21T08:40:50;3.00;;;1.20;;
11131;SDS011;5620;53.570;9.718;2024-02-21T08:43:16;8.27;;;2.35;;
11131;SDS011;5620;53.570;9.718;2024-02-21T08:45:41;6.93;;;2.00;;
11131;SDS011;5620;53.570;9.718;2024-02-21T08:48:07;7.00;;;2.50;;
11131;SDS011;5620;53.570;9.718;2024-02-21T08:50:32;3.88;;;2.03;;
11131;SDS011;5620;53.570;9.718;2024-02-21T08:52:58;5.43;;;1.20;;
11131;SDS011;5620;53.570;9.718;2024-02-21T08:55:23;13.97;;;2.00;;
11131;SDS011;5620;53.570;9.718;2024-02-21T08:57:49;12.15;;;2.33;;
11131;SDS011;5620;53.570;9.718;2024-02-21T09:00:15;5.07;;;1.50;;
11131;SDS011;5620;53.570;9.718;2024-02-21T09:02:41;5.65;;;2.13;;
11131;SDS011;5620;53.570;9.718;2024-02-21T09:05:07;10.53;;;2.17;;
11131;SDS011;5620;53.570;9.718;2024-02-21T09:07:32;5.55;;;1.40;;
11131;SDS011;5620;53.570;9.718;2024-02-21T09:09:58;15.27;;;2.30;;
11131;SDS011;5620;53.570;9.718;2024-02-21T09:12:23;6.57;;;1.40;;
11131;SDS011;5620;53.570;9.718;2024-02-21T09:14:49;5.78;;;1.48;;
11131;SDS011;5620;53.570;9.718;2024-02-21T09:17:14;1.93;;;1.40;;
11131;SDS011;5620;53.570;9.718;2024-02-21T09:19:40;6.23;;;1.43;;
11131;SDS011;5620;53.570;9.718;2024-02-21T09:22:05;7.60;;;1.65;;
11131;SDS011;5620;53.570;9.718;2024-02-21T09:24:31;8.90;;;2.20;;
11131;SDS011;5620;53.570;9.718;2024-02-21T09:26:56;7.17;;;1.50;;
11131;SDS011;5620;53.570;9.718;2024-02-21T09:29:22;6.88;;;1.60;;
11131;SDS011;5620;53.570;9.718;2024-02-21T09:31:47;5.27;;;2.03;;
11131;SDS011;5620;53.570;9.718;2024-02-21T09:34:13;4.17;;;1.70;;
11131;SDS011;5620;53.570;9.718;2024-02-21T09:36:38;2.85;;;1.25;;
11131;SDS011;5620;53.570;9.718;2024-02-21T09:39:04;7.18;;;1.70;;
11131;SDS011;5620;53.570;9.718;2024-02-21T09:41:29;2.13;;;0.90;;
11131;SDS011;5620;53.570;9.718;2024-02-21T09:43:55;2.75;;;1.20;;
11131;SDS011;5620;53.570;9.718;2024-02-21T09:47:03;1.73;;;1.20;;
11131;SDS011;5620;53.570;9.718;2024-02-21T09:49:31;4.22;;;1.40;;
11131;SDS011;5620;53.570;9.718;2024-02-21T09:51:57;1.23;;;1.13;;
11131;SDS011;5620;53.570;9.718;2024-02-21T09:54:24;2.25;;;1.40;;
11131;SDS011;5620;53.570;9.718;2024-02-21T09:56:52;2.08;;;1.98;;
11131;SDS011;5620;53.570;9.718;2024-02-21T09:59:18;2.07;;;1.97;;
11131;SDS011;5620;53.570;9.718;2024-02-21T10:01:44;2.63;;;2.42;;
11131;SDS011;5620;53.570;9.718;2024-02-21T10:04:10;3.13;;;2.83;;
11131;SDS011;5620;53.570;9.718;2024-02-21T10:06:35;3.23;;;2.87;;
11131;SDS011;5620;53.570;9.718;2024-02-21T10:09:01;4.88;;;4.38;;
11131;SDS011;5620;53.570;9.718;2024-02-21T10:11:27;3.47;;;3.27;;
11131;SDS011;5620;53.570;9.718;2024-02-21T10:14:07;3.50;;;3.17;;
11131;SDS011;5620;53.570;9.718;2024-02-21T10:16:33;4.57;;;4.18;;
11131;SDS011;5620;53.570;9.718;2024-02-21T10:18:59;7.57;;;4.38;;
11131;SDS011;5620;53.570;9.718;2024-02-21T10:21:25;4.77;;;4.23;;
11131;SDS011;5620;53.570;9.718;2024-02-21T10:23:50;12.70;;;5.03;;
11131;SDS011;5620;53.570;9.718;2024-02-21T10:26:17;4.45;;;4.15;;
11131;SDS011;5620;53.570;9.718;2024-02-21T10:28:44;5.63;;;5.13;;
11131;SDS011;5620;53.570;9.718;2024-02-21T10:31:10;7.43;;;3.97;;
11131;SDS011;5620;53.570;9.718;2024-02-21T10:33:36;9.63;;;6.80;;
11131;SDS011;5620;53.570;9.718;2024-02-21T10:36:06;7.72;;;6.70;;
11131;SDS011;5620;53.570;9.718;2024-02-21T10:38:35;13.07;;;7.97;;
11131;SDS011;5620;53.570;9.718;2024-02-21T10:41:02;9.18;;;8.30;;
11131;SDS011;5620;53.570;9.718;2024-02-21T10:43:29;10.10;;;7.20;;
11131;SDS011;5620;53.570;9.718;2024-02-21T10:45:59;15.55;;;10.35;;
11131;SDS011;5620;53.570;9.718;2024-02-21T10:48:28;14.02;;;10.38;;
11131;SDS011;5620;53.570;9.718;2024-02-21T10:59:00;15.80;;;9.85;;
11131;SDS011;5620;53.570;9.718;2024-02-21T11:01:26;15.15;;;9.88;;
11131;SDS011;5620;53.570;9.718;2024-02-21T11:03:53;20.53;;;11.37;;
11131;SDS011;5620;53.570;9.718;2024-02-21T11:06:21;11.55;;;9.25;;
11131;SDS011;5620;53.570;9.718;2024-02-21T11:08:48;21.10;;;11.07;;
11131;SDS011;5620;53.570;9.718;2024-02-21T11:11:34;10.50;;;8.50;;
11131;SDS011;5620;53.570;9.718;2024-02-21T11:14:03;19.75;;;10.90;;
11131;SDS011;5620;53.570;9.718;2024-02-21T11:16:39;14.30;;;7.97;;
11131;SDS011;5620;53.570;9.718;2024-02-21T11:21:47;12.60;;;8.30;;
11131;SDS011;5620;53.570;9.718;2024-02-21T11:24:13;11.82;;;6.10;;
11131;SDS011;5620;53.570;9.718;2024-02-21T11:26:39;12.70;;;6.50;;
11131;SDS011;5620;53.570;9.718;2024-02-21T11:29:05;4.80;;;4.35;;
11131;SDS011;5620;53.570;9.718;2024-02-21T11:31:40;5.60;;;4.87;;
11131;SDS011;5620;53.570;9.718;2024-02-21T11:34:10;13.68;;;6.25;;
11131;SDS011;5620;53.570;9.718;2024-02-21T11:36:36;4.95;;;4.45;;
11131;SDS011;5620;53.570;9.718;2024-02-21T11:39:11;6.15;;;5.03;;
11131;SDS011;5620;53.570;9.718;2024-02-21T11:41:36;6.57;;;5.97;;
11131;SDS011;5620;53.570;9.718;2024-02-21T11:44:02;5.17;;;4.67;;
11131;SDS011;5620;53.570;9.718;2024-02-21T11:46:28;7.93;;;4.88;;
11131;SDS011;5620;53.570;9.718;2024-02-21T11:48:53;5.13;;;4.73;;
11131;SDS011;5620;53.570;9.718;2024-02-21T11:51:25;9.23;;;4.35;;
11131;SDS011;5620;53.570;9.718;2024-02-21T11:53:52;8.63;;;6.30;;
11131;SDS011;5620;53.570;9.718;2024-02-21T11:56:18;7.35;;;4.95;;
11131;SDS011;5620;53.570;9.718;2024-02-21T11:58:44;7.25;;;5.03;;
11131;SDS011;5620;53.570;9.718;2024-02-21T12:01:10;7.97;;;7.18;;
11131;SDS011;5620;53.570;9.718;2024-02-21T12:03:36;8.83;;;6.93;;
11131;SDS011;5620;53.570;9.718;2024-02-21T12:06:02;7.32;;;6.05;;
11131;SDS011;5620;53.570;9.718;2024-02-21T12:08:28;11.23;;;6.63;;
11131;SDS011;5620;53.570;9.718;2024-02-21T12:11:15;5.15;;;4.70;;
11131;SDS011;5620;53.570;9.718;2024-02-21T12:13:45;7.38;;;4.50;;
11131;SDS011;5620;53.570;9.718;2024-02-21T12:16:10;24.13;;;16.80;;
11131;SDS011;5620;53.570;9.718;2024-02-21T12:18:36;20.60;;;11.23;;
11131;SDS011;5620;53.570;9.718;2024-02-21T12:21:01;9.67;;;4.83;;
11131;SDS011;5620;53.570;9.718;2024-02-21T12:23:27;7.38;;;5.28;;
11131;SDS011;5620;53.570;9.718;2024-02-21T12:25:52;7.80;;;6.00;;
11131;SDS011;5620;53.570;9.718;2024-02-21T12:28:18;8.03;;;5.93;;
11131;SDS011;5620;53.570;9.718;2024-02-21T12:30:43;9.40;;;5.83;;
11131;SDS011;5620;53.570;9.718;2024-02-21T12:33:09;6.60;;;5.35;;
11131;SDS011;5620;53.570;9.718;2024-02-21T12:35:34;8.07;;;6.13;;
11131;SDS011;5620;53.570;9.718;2024-02-21T12:38:00;9.87;;;5.80;;
11131;SDS011;5620;53.570;9.718;2024-02-21T12:40:26;9.13;;;5.60;;
11131;SDS011;5620;53.570;9.718;2024-02-21T12:42:51;9.23;;;6.37;;
11131;SDS011;5620;53.570;9.718;2024-02-21T12:45:17;8.60;;;6.37;;
11131;SDS011;5620;53.570;9.718;2024-02-21T12:47:42;7.10;;;5.22;;
11131;SDS011;5620;53.570;9.718;2024-02-21T12:50:08;8.20;;;6.00;;
11131;SDS011;5620;53.570;9.718;2024-02-21T12:52:34;9.85;;;6.00;;
11131;SDS011;5620;53.570;9.718;2024-02-21T12:54:59;6.77;;;5.43;;
11131;SDS011;5620;53.570;9.718;2024-02-21T12:57:25;8.30;;;6.87;;
11131;SDS011;5620;53.570;9.718;2024-02-21T12:59:50;7.10;;;5.88;;
11131;SDS011;5620;53.570;9.718;2024-02-21T13:02:16;7.67;;;6.00;;
11131;SDS011;5620;53.570;9.718;2024-02-21T13:04:41;12.90;;;5.57;;
11131;SDS011;5620;53.570;9.718;2024-02-21T13:07:07;12.25;;;6.03;;
11131;SDS011;5620;53.570;9.718;2024-02-21T13:09:32;6.90;;;5.55;;
11131;SDS011;5620;53.570;9.718;2024-02-21T13:11:58;10.90;;;6.63;;
11131;SDS011;5620;53.570;9.718;2024-02-21T13:14:23;10.00;;;5.90;;
11131;SDS011;5620;53.570;9.718;2024-02-21T13:16:49;17.05;;;5.97;;
11131;SDS011;5620;53.570;9.718;2024-02-21T13:19:15;10.07;;;5.50;;
11131;SDS011;5620;53.570;9.718;2024-02-21T13:21:41;9.23;;;5.10;;
11131;SDS011;5620;53.570;9.718;2024-02-21T13:24:06;10.93;;;6.60;;
11131;SDS011;5620;53.570;9.718;2024-02-21T13:26:32;6.43;;;5.00;;
11131;SDS011;5620;53.570;9.718;2024-02-21T13:28:57;16.88;;;5.95;;
11131;SDS011;5620;53.570;9.718;2024-02-21T13:31:23;9.80;;;4.87;;
11131;SDS011;5620;53.570;9.718;2024-02-21T13:33:48;16.30;;;5.87;;
11131;SDS011;5620;53.570;9.718;2024-02-21T13:36:14;10.25;;;5.45;;
11131;SDS011;5620;53.570;9.718;2024-02-21T13:38:39;14.07;;;5.20;;
11131;SDS011;5620;53.570;9.718;2024-02-21T13:41:05;8.07;;;5.80;;
11131;SDS011;5620;53.570;9.718;2024-02-21T13:43:31;7.25;;;4.72;;
11131;SDS011;5620;53.570;9.718;2024-02-21T13:45:57;7.40;;;4.17;;
11131;SDS011;5620;53.570;9.718;2024-02-21T13:48:23;8.35;;;5.20;;
11131;SDS011;5620;53.570;9.718;2024-02-21T13:50:49;6.83;;;5.03;;
11131;SDS011;5620;53.570;9.718;2024-02-21T13:53:14;13.60;;;5.43;;
11131;SDS011;5620;53.570;9.718;2024-02-21T13:55:40;8.73;;;4.63;;
11131;SDS011;5620;53.570;9.718;2024-02-21T13:58:06;6.60;;;4.60;;
11131;SDS011;5620;53.570;9.718;2024-02-21T14:00:31;4.83;;;3.63;;
11131;SDS011;5620;53.570;9.718;2024-02-21T14:02:57;5.43;;;4.25;;
11131;SDS011;5620;53.570;9.718;2024-02-21T14:05:22;8.47;;;4.10;;
11131;SDS011;5620;53.570;9.718;2024-02-21T14:07:48;7.80;;;4.03;;
11131;SDS011;5620;53.570;9.718;2024-02-21T14:10:13;9.93;;;4.22;;
11131;SDS011;5620;53.570;9.718;2024-02-21T14:12:39;5.37;;;3.23;;
11131;SDS011;5620;53.570;9.718;2024-02-21T14:15:04;4.17;;;3.47;;
11131;SDS011;5620;53.570;9.718;2024-02-21T14:17:30;12.32;;;6.68;;
11131;SDS011;5620;53.570;9.718;2024-02-21T14:19:56;19.00;;;9.52;;
11131;SDS011;5620;53.570;9.718;2024-02-21T14:22:21;5.47;;;3.63;;
11131;SDS011;5620;53.570;9.718;2024-02-21T14:24:47;8.90;;;4.07;;
11131;SDS011;5620;53.570;9.718;2024-02-21T14:27:12;7.50;;;3.47;;
11131;SDS011;5620;53.570;9.718;2024-02-21T14:29:38;8.55;;;3.72;;
11131;SDS011;5620;53.570;9.718;2024-02-21T14:32:03;2.83;;;2.60;;
11131;SDS011;5620;53.570;9.718;2024-02-21T14:34:29;7.03;;;3.13;;
11131;SDS011;5620;53.570;9.718;2024-02-21T14:36:54;5.63;;;3.08;;
11131;SDS011;5620;53.570;9.718;2024-02-21T14:39:20;6.20;;;2.67;;
11131;SDS011;5620;53.570;9.718;2024-02-21T14:41:45;3.53;;;2.60;;
11131;SDS011;5620;53.570;9.718;2024-02-21T14:44:11;3.83;;;3.10;;
11131;SDS011;5620;53.570;9.718;2024-02-21T14:46:37;10.55;;;4.93;;
11131;SDS011;5620;53.570;9.718;2024-02-21T14:49:02;12.10;;;3.20;;
11131;SDS011;5620;53.570;9.718;2024-02-21T14:51:28;5.50;;;2.63;;
11131;SDS011;5620;53.570;9.718;2024-02-21T14:53:54;3.93;;;2.60;;
11131;SDS011;5620;53.570;9.718;2024-02-21T14:56:19;4.65;;;2.42;;
11131;SDS011;5620;53.570;9.718;2024-02-21T14:58:45;6.83;;;3.50;;